aviador You're here:

CYUS Decoded Metar

SHEPHERD BAY in NU, CANADA
Report Time2017-09-23 19:33:00
UTC Time2017-09-23 20:03:57
Flight Rules lifr LIFR
Wind290° at 11 Gusting to 16 kt
W.Rank290° ranks 9
Current wind is above 290° avg. (10.9)
Visibility0 m
Phenomena:N/A
Clouds:Overcast 011 Hf
Expected CloudBase > 800 ft AGL from Temp-Dew spread
Ceiling1,100 ft
Temp-1°C (ISA -16)
Dew Point-3°C (86% RH)
AAT-7.4°C
QNH1022 hPa
Density Alt-2,028 ft
Elevation138 ft
Report Wrong Elevation
Raw Report
SPECI CYUS 231933Z AUTO 29011G16KT ////SM //// OVC011 M01/M03 A3019=

Extra information for CYUS:More info

Metar Taf Metar & Taf Last 4 Metars F.Rules Stats Wind Profile Meteogram Temp Stats Airport Information Weather charts Add Link Nearby VenuesMetar ALERT Operation Metar Decoded Social comments